sensor_id;sensor_type;location;lat;lon;timestamp;P1;durP1;ratioP1;P2;durP2;ratioP2
38425;SDS011;24210;51.460;6.148;2023-03-01T00:01:45;6.37;;;5.77;;
38425;SDS011;24210;51.460;6.148;2023-03-01T00:04:11;6.47;;;5.87;;
38425;SDS011;24210;51.460;6.148;2023-03-01T00:06:36;8.53;;;6.13;;
38425;SDS011;24210;51.460;6.148;2023-03-01T00:09:02;8.07;;;6.13;;
38425;SDS011;24210;51.460;6.148;2023-03-01T00:11:28;6.43;;;5.70;;
38425;SDS011;24210;51.460;6.148;2023-03-01T00:16:29;6.47;;;5.87;;
38425;SDS011;24210;51.460;6.148;2023-03-01T00:18:55;9.32;;;8.10;;
38425;SDS011;24210;51.460;6.148;2023-03-01T00:21:21;7.30;;;6.30;;
38425;SDS011;24210;51.460;6.148;2023-03-01T00:23:49;7.30;;;6.10;;
38425;SDS011;24210;51.460;6.148;2023-03-01T00:26:15;7.00;;;5.90;;
38425;SDS011;24210;51.460;6.148;2023-03-01T00:28:41;7.50;;;6.03;;
38425;SDS011;24210;51.460;6.148;2023-03-01T00:31:08;6.77;;;5.87;;
38425;SDS011;24210;51.460;6.148;2023-03-01T00:33:34;7.22;;;6.35;;
38425;SDS011;24210;51.460;6.148;2023-03-01T00:35:59;9.27;;;6.20;;
38425;SDS011;24210;51.460;6.148;2023-03-01T00:38:24;8.37;;;6.53;;
38425;SDS011;24210;51.460;6.148;2023-03-01T00:40:50;6.43;;;5.80;;
38425;SDS011;24210;51.460;6.148;2023-03-01T00:43:15;7.20;;;6.20;;
38425;SDS011;24210;51.460;6.148;2023-03-01T00:45:40;7.17;;;6.47;;
38425;SDS011;24210;51.460;6.148;2023-03-01T00:48:05;6.97;;;5.97;;
38425;SDS011;24210;51.460;6.148;2023-03-01T00:50:30;7.10;;;6.47;;
38425;SDS011;24210;51.460;6.148;2023-03-01T00:52:56;9.07;;;6.20;;
38425;SDS011;24210;51.460;6.148;2023-03-01T00:55:21;7.13;;;6.43;;
38425;SDS011;24210;51.460;6.148;2023-03-01T00:57:47;6.60;;;5.83;;
38425;SDS011;24210;51.460;6.148;2023-03-01T01:00:12;9.23;;;6.27;;
38425;SDS011;24210;51.460;6.148;2023-03-01T01:02:37;8.57;;;5.90;;
38425;SDS011;24210;51.460;6.148;2023-03-01T01:05:03;7.53;;;6.37;;
38425;SDS011;24210;51.460;6.148;2023-03-01T01:07:28;10.60;;;7.13;;
38425;SDS011;24210;51.460;6.148;2023-03-01T01:09:54;11.67;;;6.33;;
38425;SDS011;24210;51.460;6.148;2023-03-01T01:12:19;8.90;;;6.23;;
38425;SDS011;24210;51.460;6.148;2023-03-01T01:14:44;10.93;;;6.43;;
38425;SDS011;24210;51.460;6.148;2023-03-01T01:17:09;9.43;;;7.40;;
38425;SDS011;24210;51.460;6.148;2023-03-01T01:19:35;7.33;;;6.23;;
38425;SDS011;24210;51.460;6.148;2023-03-01T01:22:00;6.40;;;5.80;;
38425;SDS011;24210;51.460;6.148;2023-03-01T01:24:25;7.77;;;6.20;;
38425;SDS011;24210;51.460;6.148;2023-03-01T01:26:50;7.03;;;6.27;;
38425;SDS011;24210;51.460;6.148;2023-03-01T01:29:16;6.30;;;5.70;;
38425;SDS011;24210;51.460;6.148;2023-03-01T01:31:41;9.63;;;6.77;;
38425;SDS011;24210;51.460;6.148;2023-03-01T01:34:08;7.20;;;5.87;;
38425;SDS011;24210;51.460;6.148;2023-03-01T01:36:34;6.60;;;5.93;;
38425;SDS011;24210;51.460;6.148;2023-03-01T01:38:59;8.37;;;6.70;;
38425;SDS011;24210;51.460;6.148;2023-03-01T01:41:25;10.03;;;5.90;;
38425;SDS011;24210;51.460;6.148;2023-03-01T01:46:35;8.82;;;6.53;;
38425;SDS011;24210;51.460;6.148;2023-03-01T01:49:05;7.20;;;6.35;;
38425;SDS011;24210;51.460;6.148;2023-03-01T01:51:33;8.07;;;5.63;;
38425;SDS011;24210;51.460;6.148;2023-03-01T01:54:03;8.60;;;6.55;;
38425;SDS011;24210;51.460;6.148;2023-03-01T01:56:31;8.23;;;7.07;;
38425;SDS011;24210;51.460;6.148;2023-03-01T01:58:56;8.07;;;7.07;;
38425;SDS011;24210;51.460;6.148;2023-03-01T02:01:22;7.90;;;6.83;;
38425;SDS011;24210;51.460;6.148;2023-03-01T02:03:47;7.37;;;6.43;;
38425;SDS011;24210;51.460;6.148;2023-03-01T02:06:31;7.83;;;6.40;;
38425;SDS011;24210;51.460;6.148;2023-03-01T02:08:59;8.68;;;7.70;;
38425;SDS011;24210;51.460;6.148;2023-03-01T02:11:25;8.63;;;6.55;;
38425;SDS011;24210;51.460;6.148;2023-03-01T02:13:51;7.45;;;6.60;;
38425;SDS011;24210;51.460;6.148;2023-03-01T02:16:17;7.45;;;6.75;;
38425;SDS011;24210;51.460;6.148;2023-03-01T02:18:42;7.07;;;6.17;;
38425;SDS011;24210;51.460;6.148;2023-03-01T02:21:25;9.83;;;6.73;;
38425;SDS011;24210;51.460;6.148;2023-03-01T02:23:54;7.95;;;6.95;;
38425;SDS011;24210;51.460;6.148;2023-03-01T02:26:36;9.43;;;6.07;;
38425;SDS011;24210;51.460;6.148;2023-03-01T02:29:03;7.53;;;6.15;;
38425;SDS011;24210;51.460;6.148;2023-03-01T02:31:30;8.85;;;7.35;;
38425;SDS011;24210;51.460;6.148;2023-03-01T02:34:09;10.52;;;7.68;;
38425;SDS011;24210;51.460;6.148;2023-03-01T02:36:37;7.60;;;6.78;;
38425;SDS011;24210;51.460;6.148;2023-03-01T02:39:04;10.10;;;7.80;;
38425;SDS011;24210;51.460;6.148;2023-03-01T02:41:32;8.18;;;7.38;;
38425;SDS011;24210;51.460;6.148;2023-03-01T02:43:59;7.95;;;6.78;;
38425;SDS011;24210;51.460;6.148;2023-03-01T02:46:25;8.73;;;7.17;;
38425;SDS011;24210;51.460;6.148;2023-03-01T02:48:55;7.43;;;6.50;;
38425;SDS011;24210;51.460;6.148;2023-03-01T02:51:24;7.90;;;7.20;;
38425;SDS011;24210;51.460;6.148;2023-03-01T02:56:22;7.90;;;6.47;;
38425;SDS011;24210;51.460;6.148;2023-03-01T02:58:47;7.73;;;6.97;;
38425;SDS011;24210;51.460;6.148;2023-03-01T03:01:16;8.50;;;6.97;;
38425;SDS011;24210;51.460;6.148;2023-03-01T03:03:42;8.57;;;7.77;;
38425;SDS011;24210;51.460;6.148;2023-03-01T03:06:07;8.30;;;7.43;;
38425;SDS011;24210;51.460;6.148;2023-03-01T03:08:33;9.13;;;7.60;;
38425;SDS011;24210;51.460;6.148;2023-03-01T03:10:58;7.87;;;7.07;;
38425;SDS011;24210;51.460;6.148;2023-03-01T03:13:23;7.60;;;6.53;;
38425;SDS011;24210;51.460;6.148;2023-03-01T03:15:53;10.52;;;6.57;;
38425;SDS011;24210;51.460;6.148;2023-03-01T03:18:18;9.13;;;7.10;;
38425;SDS011;24210;51.460;6.148;2023-03-01T03:20:44;7.20;;;6.50;;
38425;SDS011;24210;51.460;6.148;2023-03-01T03:23:10;7.37;;;6.53;;
38425;SDS011;24210;51.460;6.148;2023-03-01T03:25:35;7.40;;;6.57;;
38425;SDS011;24210;51.460;6.148;2023-03-01T03:28:02;12.02;;;6.78;;
38425;SDS011;24210;51.460;6.148;2023-03-01T03:30:34;8.05;;;6.65;;
38425;SDS011;24210;51.460;6.148;2023-03-01T03:32:59;11.30;;;7.47;;
38425;SDS011;24210;51.460;6.148;2023-03-01T03:35:26;8.37;;;6.83;;
38425;SDS011;24210;51.460;6.148;2023-03-01T03:37:53;8.27;;;7.53;;
38425;SDS011;24210;51.460;6.148;2023-03-01T03:40:37;9.23;;;6.90;;
38425;SDS011;24210;51.460;6.148;2023-03-01T03:43:03;9.48;;;7.05;;
38425;SDS011;24210;51.460;6.148;2023-03-01T03:45:29;9.82;;;7.72;;
38425;SDS011;24210;51.460;6.148;2023-03-01T03:47:54;7.93;;;6.10;;
38425;SDS011;24210;51.460;6.148;2023-03-01T03:50:20;11.20;;;6.53;;
38425;SDS011;24210;51.460;6.148;2023-03-01T03:52:45;7.67;;;6.40;;
38425;SDS011;24210;51.460;6.148;2023-03-01T03:55:11;9.57;;;7.07;;
38425;SDS011;24210;51.460;6.148;2023-03-01T03:57:37;8.40;;;7.05;;
38425;SDS011;24210;51.460;6.148;2023-03-01T04:00:02;8.20;;;6.55;;
38425;SDS011;24210;51.460;6.148;2023-03-01T04:02:30;11.48;;;7.20;;
38425;SDS011;24210;51.460;6.148;2023-03-01T04:04:55;11.47;;;6.53;;
38425;SDS011;24210;51.460;6.148;2023-03-01T04:07:21;9.33;;;6.97;;
38425;SDS011;24210;51.460;6.148;2023-03-01T04:09:46;8.80;;;7.97;;
38425;SDS011;24210;51.460;6.148;2023-03-01T04:12:11;8.03;;;6.77;;
38425;SDS011;24210;51.460;6.148;2023-03-01T04:14:36;9.73;;;7.47;;
38425;SDS011;24210;51.460;6.148;2023-03-01T04:17:01;10.97;;;7.80;;
38425;SDS011;24210;51.460;6.148;2023-03-01T04:19:30;8.77;;;7.72;;
38425;SDS011;24210;51.460;6.148;2023-03-01T04:22:04;8.85;;;7.03;;
38425;SDS011;24210;51.460;6.148;2023-03-01T04:24:34;7.90;;;6.70;;
38425;SDS011;24210;51.460;6.148;2023-03-01T04:26:59;8.33;;;7.00;;
38425;SDS011;24210;51.460;6.148;2023-03-01T04:29:24;10.13;;;6.63;;
38425;SDS011;24210;51.460;6.148;2023-03-01T04:31:50;7.57;;;6.37;;
38425;SDS011;24210;51.460;6.148;2023-03-01T04:34:15;7.67;;;6.70;;
38425;SDS011;24210;51.460;6.148;2023-03-01T04:36:40;8.23;;;7.13;;
38425;SDS011;24210;51.460;6.148;2023-03-01T04:39:05;9.57;;;7.63;;
38425;SDS011;24210;51.460;6.148;2023-03-01T04:41:37;10.48;;;7.35;;
38425;SDS011;24210;51.460;6.148;2023-03-01T04:44:03;8.60;;;6.72;;
38425;SDS011;24210;51.460;6.148;2023-03-01T04:46:29;9.90;;;7.23;;
38425;SDS011;24210;51.460;6.148;2023-03-01T04:48:54;9.10;;;7.20;;
38425;SDS011;24210;51.460;6.148;2023-03-01T04:51:20;9.13;;;8.10;;
38425;SDS011;24210;51.460;6.148;2023-03-01T04:53:45;8.93;;;7.33;;
38425;SDS011;24210;51.460;6.148;2023-03-01T04:56:10;10.40;;;6.73;;
38425;SDS011;24210;51.460;6.148;2023-03-01T04:58:35;9.10;;;7.57;;
38425;SDS011;24210;51.460;6.148;2023-03-01T05:01:01;8.93;;;7.93;;
38425;SDS011;24210;51.460;6.148;2023-03-01T05:03:26;8.73;;;7.17;;
38425;SDS011;24210;51.460;6.148;2023-03-01T05:05:53;8.43;;;7.13;;
38425;SDS011;24210;51.460;6.148;2023-03-01T05:08:18;7.95;;;6.88;;
38425;SDS011;24210;51.460;6.148;2023-03-01T05:10:45;8.27;;;7.23;;
38425;SDS011;24210;51.460;6.148;2023-03-01T05:13:11;11.48;;;7.20;;
38425;SDS011;24210;51.460;6.148;2023-03-01T05:15:38;12.52;;;8.18;;
38425;SDS011;24210;51.460;6.148;2023-03-01T05:18:03;9.80;;;6.77;;
38425;SDS011;24210;51.460;6.148;2023-03-01T05:20:29;11.70;;;7.63;;
38425;SDS011;24210;51.460;6.148;2023-03-01T05:22:56;9.93;;;7.22;;
38425;SDS011;24210;51.460;6.148;2023-03-01T05:27:46;9.48;;;7.72;;
38425;SDS011;24210;51.460;6.148;2023-03-01T05:30:12;9.90;;;7.77;;
38425;SDS011;24210;51.460;6.148;2023-03-01T05:32:44;10.35;;;7.90;;
38425;SDS011;24210;51.460;6.148;2023-03-01T05:35:13;9.02;;;7.30;;
38425;SDS011;24210;51.460;6.148;2023-03-01T05:37:39;9.45;;;7.30;;
38425;SDS011;24210;51.460;6.148;2023-03-01T05:40:05;9.43;;;7.50;;
38425;SDS011;24210;51.460;6.148;2023-03-01T05:42:30;9.20;;;7.43;;
38425;SDS011;24210;51.460;6.148;2023-03-01T05:44:55;11.27;;;7.47;;
38425;SDS011;24210;51.460;6.148;2023-03-01T05:47:21;9.33;;;7.53;;
38425;SDS011;24210;51.460;6.148;2023-03-01T05:49:46;9.13;;;7.77;;
38425;SDS011;24210;51.460;6.148;2023-03-01T05:52:12;12.70;;;7.47;;
38425;SDS011;24210;51.460;6.148;2023-03-01T05:54:37;9.30;;;6.90;;
38425;SDS011;24210;51.460;6.148;2023-03-01T05:57:02;15.80;;;9.20;;
38425;SDS011;24210;51.460;6.148;2023-03-01T05:59:27;10.07;;;8.03;;
38425;SDS011;24210;51.460;6.148;2023-03-01T06:01:53;10.70;;;8.17;;
38425;SDS011;24210;51.460;6.148;2023-03-01T06:04:18;10.93;;;8.20;;
38425;SDS011;24210;51.460;6.148;2023-03-01T06:06:43;10.00;;;8.47;;
38425;SDS011;24210;51.460;6.148;2023-03-01T06:09:08;8.80;;;7.10;;
38425;SDS011;24210;51.460;6.148;2023-03-01T06:11:35;9.63;;;7.68;;
38425;SDS011;24210;51.460;6.148;2023-03-01T06:14:01;13.43;;;7.95;;
38425;SDS011;24210;51.460;6.148;2023-03-01T06:16:26;11.97;;;8.30;;
38425;SDS011;24210;51.460;6.148;2023-03-01T06:18:51;11.20;;;8.63;;
38425;SDS011;24210;51.460;6.148;2023-03-01T06:21:17;10.67;;;8.03;;
38425;SDS011;24210;51.460;6.148;2023-03-01T06:23:42;12.60;;;8.03;;
38425;SDS011;24210;51.460;6.148;2023-03-01T06:26:07;11.27;;;7.97;;
38425;SDS011;24210;51.460;6.148;2023-03-01T06:28:33;9.87;;;8.03;;
38425;SDS011;24210;51.460;6.148;2023-03-01T06:30:58;12.97;;;7.87;;
38425;SDS011;24210;51.460;6.148;2023-03-01T06:33:23;9.50;;;7.70;;
38425;SDS011;24210;51.460;6.148;2023-03-01T06:35:49;11.87;;;8.77;;
38425;SDS011;24210;51.460;6.148;2023-03-01T06:38:14;15.43;;;8.87;;
38425;SDS011;24210;51.460;6.148;2023-03-01T06:40:40;15.57;;;8.63;;
38425;SDS011;24210;51.460;6.148;2023-03-01T06:43:05;11.87;;;9.23;;
38425;SDS011;24210;51.460;6.148;2023-03-01T06:45:32;11.90;;;8.55;;
38425;SDS011;24210;51.460;6.148;2023-03-01T06:48:04;13.27;;;8.83;;
38425;SDS011;24210;51.460;6.148;2023-03-01T06:50:29;16.58;;;9.57;;
38425;SDS011;24210;51.460;6.148;2023-03-01T06:52:58;19.80;;;12.43;;
38425;SDS011;24210;51.460;6.148;2023-03-01T06:55:23;21.65;;;12.77;;
38425;SDS011;24210;51.460;6.148;2023-03-01T06:57:48;25.97;;;14.03;;
38425;SDS011;24210;51.460;6.148;2023-03-01T07:00:14;15.33;;;10.10;;
38425;SDS011;24210;51.460;6.148;2023-03-01T07:02:39;13.43;;;9.83;;
38425;SDS011;24210;51.460;6.148;2023-03-01T07:05:05;11.97;;;9.67;;
38425;SDS011;24210;51.460;6.148;2023-03-01T07:07:30;19.97;;;12.30;;
38425;SDS011;24210;51.460;6.148;2023-03-01T07:09:55;16.47;;;10.70;;
38425;SDS011;24210;51.460;6.148;2023-03-01T07:12:20;11.10;;;8.73;;
38425;SDS011;24210;51.460;6.148;2023-03-01T07:14:46;9.97;;;8.60;;
38425;SDS011;24210;51.460;6.148;2023-03-01T07:17:11;20.07;;;12.10;;
38425;SDS011;24210;51.460;6.148;2023-03-01T07:19:36;9.73;;;8.40;;
38425;SDS011;24210;51.460;6.148;2023-03-01T07:22:02;12.07;;;8.70;;
38425;SDS011;24210;51.460;6.148;2023-03-01T07:24:29;11.70;;;8.48;;
38425;SDS011;24210;51.460;6.148;2023-03-01T07:26:54;12.90;;;9.00;;
38425;SDS011;24210;51.460;6.148;2023-03-01T07:29:19;12.30;;;8.60;;
38425;SDS011;24210;51.460;6.148;2023-03-01T07:31:45;9.90;;;8.10;;
38425;SDS011;24210;51.460;6.148;2023-03-01T07:34:10;10.70;;;6.90;;
38425;SDS011;24210;51.460;6.148;2023-03-01T07:36:36;11.40;;;8.13;;
38425;SDS011;24210;51.460;6.148;2023-03-01T07:39:01;14.57;;;8.50;;
38425;SDS011;24210;51.460;6.148;2023-03-01T07:41:28;8.57;;;7.72;;
38425;SDS011;24210;51.460;6.148;2023-03-01T07:43:53;9.07;;;6.43;;
38425;SDS011;24210;51.460;6.148;2023-03-01T07:46:18;10.43;;;7.77;;
38425;SDS011;24210;51.460;6.148;2023-03-01T07:48:44;10.97;;;7.50;;
38425;SDS011;24210;51.460;6.148;2023-03-01T07:51:09;12.37;;;6.77;;
38425;SDS011;24210;51.460;6.148;2023-03-01T07:53:35;10.40;;;7.90;;
38425;SDS011;24210;51.460;6.148;2023-03-01T07:56:03;8.67;;;6.27;;
38425;SDS011;24210;51.460;6.148;2023-03-01T07:58:28;9.30;;;7.22;;
38425;SDS011;24210;51.460;6.148;2023-03-01T08:00:53;9.87;;;7.63;;
38425;SDS011;24210;51.460;6.148;2023-03-01T08:03:19;11.27;;;7.33;;
38425;SDS011;24210;51.460;6.148;2023-03-01T08:05:44;8.33;;;6.43;;
38425;SDS011;24210;51.460;6.148;2023-03-01T08:08:09;11.10;;;7.10;;
38425;SDS011;24210;51.460;6.148;2023-03-01T08:10:35;7.40;;;6.67;;
38425;SDS011;24210;51.460;6.148;2023-03-01T08:13:00;10.23;;;7.65;;
38425;SDS011;24210;51.460;6.148;2023-03-01T08:15:26;8.83;;;7.43;;
38425;SDS011;24210;51.460;6.148;2023-03-01T08:17:51;7.63;;;6.60;;
38425;SDS011;24210;51.460;6.148;2023-03-01T08:20:16;7.47;;;6.10;;
38425;SDS011;24210;51.460;6.148;2023-03-01T08:22:41;10.93;;;6.20;;
38425;SDS011;24210;51.460;6.148;2023-03-01T08:25:07;10.50;;;6.93;;
38425;SDS011;24210;51.460;6.148;2023-03-01T08:27:32;10.73;;;7.37;;
38425;SDS011;24210;51.460;6.148;2023-03-01T08:29:57;9.53;;;6.20;;
38425;SDS011;24210;51.460;6.148;2023-03-01T08:32:22;9.57;;;7.50;;
38425;SDS011;24210;51.460;6.148;2023-03-01T08:34:48;10.80;;;7.80;;
38425;SDS011;24210;51.460;6.148;2023-03-01T08:37:13;9.50;;;6.87;;
38425;SDS011;24210;51.460;6.148;2023-03-01T08:39:38;10.47;;;6.97;;
38425;SDS011;24210;51.460;6.148;2023-03-01T08:42:03;9.43;;;6.30;;
38425;SDS011;24210;51.460;6.148;2023-03-01T08:44:29;9.57;;;7.53;;
38425;SDS011;24210;51.460;6.148;2023-03-01T08:46:54;10.03;;;7.50;;
38425;SDS011;24210;51.460;6.148;2023-03-01T08:49:20;11.35;;;8.30;;
38425;SDS011;24210;51.460;6.148;2023-03-01T08:51:46;7.60;;;5.27;;
38425;SDS011;24210;51.460;6.148;2023-03-01T08:54:12;7.23;;;4.13;;
38425;SDS011;24210;51.460;6.148;2023-03-01T08:56:39;12.90;;;8.52;;
38425;SDS011;24210;51.460;6.148;2023-03-01T08:59:04;7.57;;;6.77;;
38425;SDS011;24210;51.460;6.148;2023-03-01T09:01:30;9.50;;;6.50;;
38425;SDS011;24210;51.460;6.148;2023-03-01T09:03:55;12.87;;;7.87;;
38425;SDS011;24210;51.460;6.148;2023-03-01T09:06:20;11.43;;;7.87;;
38425;SDS011;24210;51.460;6.148;2023-03-01T09:08:46;8.23;;;6.60;;
38425;SDS011;24210;51.460;6.148;2023-03-01T09:11:13;11.02;;;7.55;;
38425;SDS011;24210;51.460;6.148;2023-03-01T09:13:38;9.35;;;6.43;;
38425;SDS011;24210;51.460;6.148;2023-03-01T09:16:04;5.87;;;3.40;;
38425;SDS011;24210;51.460;6.148;2023-03-01T09:18:30;10.95;;;6.78;;
38425;SDS011;24210;51.460;6.148;2023-03-01T09:21:12;11.73;;;8.37;;
38425;SDS011;24210;51.460;6.148;2023-03-01T09:23:38;11.73;;;9.82;;
38425;SDS011;24210;51.460;6.148;2023-03-01T09:26:11;12.15;;;8.48;;
38425;SDS011;24210;51.460;6.148;2023-03-01T09:28:37;10.45;;;6.47;;
38425;SDS011;24210;51.460;6.148;2023-03-01T09:31:02;8.00;;;7.17;;
38425;SDS011;24210;51.460;6.148;2023-03-01T09:33:29;5.47;;;4.27;;
38425;SDS011;24210;51.460;6.148;2023-03-01T09:36:01;14.65;;;10.02;;
38425;SDS011;24210;51.460;6.148;2023-03-01T09:38:27;12.82;;;7.18;;
38425;SDS011;24210;51.460;6.148;2023-03-01T09:40:53;10.87;;;8.80;;
38425;SDS011;24210;51.460;6.148;2023-03-01T09:43:30;13.33;;;8.00;;
38425;SDS011;24210;51.460;6.148;2023-03-01T09:45:59;9.90;;;7.38;;
38425;SDS011;24210;51.460;6.148;2023-03-01T09:48:27;12.93;;;7.38;;
38425;SDS011;24210;51.460;6.148;2023-03-01T09:50:55;11.07;;;7.90;;
38425;SDS011;24210;51.460;6.148;2023-03-01T09:53:22;11.55;;;10.00;;
38425;SDS011;24210;51.460;6.148;2023-03-01T10:06:12;14.95;;;9.75;;
38425;SDS011;24210;51.460;6.148;2023-03-01T10:08:43;13.40;;;8.90;;
38425;SDS011;24210;51.460;6.148;2023-03-01T10:11:21;10.95;;;7.45;;
38425;SDS011;24210;51.460;6.148;2023-03-01T10:13:52;13.63;;;10.20;;
38425;SDS011;24210;51.460;6.148;2023-03-01T10:16:24;11.27;;;8.77;;
38425;SDS011;24210;51.460;6.148;2023-03-01T10:19:00;7.10;;;5.07;;
38425;SDS011;24210;51.460;6.148;2023-03-01T10:21:27;6.40;;;4.30;;
38425;SDS011;24210;51.460;6.148;2023-03-01T10:23:54;6.85;;;3.78;;
38425;SDS011;24210;51.460;6.148;2023-03-01T10:26:24;7.95;;;4.15;;
38425;SDS011;24210;51.460;6.148;2023-03-01T10:31:24;10.82;;;9.60;;
38425;SDS011;24210;51.460;6.148;2023-03-01T10:33:54;9.95;;;8.80;;
38425;SDS011;24210;51.460;6.148;2023-03-01T10:36:21;13.48;;;9.00;;
38425;SDS011;24210;51.460;6.148;2023-03-01T10:38:48;11.33;;;9.67;;
38425;SDS011;24210;51.460;6.148;2023-03-01T10:41:13;12.15;;;9.52;;
38425;SDS011;24210;51.460;6.148;2023-03-01T10:43:43;12.77;;;9.30;;
38425;SDS011;24210;51.460;6.148;2023-03-01T10:46:26;13.60;;;10.52;;
38425;SDS011;24210;51.460;6.148;2023-03-01T10:51:32;7.18;;;5.13;;
38425;SDS011;24210;51.460;6.148;2023-03-01T10:53:57;5.40;;;4.43;;
38425;SDS011;24210;51.460;6.148;2023-03-01T10:56:23;7.23;;;3.73;;
38425;SDS011;24210;51.460;6.148;2023-03-01T10:59:00;5.93;;;4.03;;
38425;SDS011;24210;51.460;6.148;2023-03-01T11:01:27;10.13;;;9.03;;
38425;SDS011;24210;51.460;6.148;2023-03-01T11:06:21;10.95;;;9.15;;
38425;SDS011;24210;51.460;6.148;2023-03-01T11:08:50;9.75;;;7.85;;
38425;SDS011;24210;51.460;6.148;2023-03-01T11:13:50;8.15;;;5.50;;
38425;SDS011;24210;51.460;6.148;2023-03-01T11:16:16;11.35;;;6.80;;
38425;SDS011;24210;51.460;6.148;2023-03-01T11:18:55;8.82;;;5.05;;
38425;SDS011;24210;51.460;6.148;2023-03-01T11:21:20;7.90;;;5.00;;
38425;SDS011;24210;51.460;6.148;2023-03-01T11:23:45;8.57;;;7.73;;
38425;SDS011;24210;51.460;6.148;2023-03-01T11:26:12;10.53;;;8.23;;
38425;SDS011;24210;51.460;6.148;2023-03-01T11:28:38;10.23;;;7.60;;
38425;SDS011;24210;51.460;6.148;2023-03-01T11:31:08;9.60;;;7.75;;
38425;SDS011;24210;51.460;6.148;2023-03-01T11:33:44;10.45;;;7.78;;
38425;SDS011;24210;51.460;6.148;2023-03-01T11:36:15;12.13;;;8.77;;
38425;SDS011;24210;51.460;6.148;2023-03-01T11:38:41;10.32;;;7.88;;
38425;SDS011;24210;51.460;6.148;2023-03-01T11:41:10;9.50;;;6.22;;
38425;SDS011;24210;51.460;6.148;2023-03-01T11:54:01;9.87;;;7.53;;
38425;SDS011;24210;51.460;6.148;2023-03-01T11:56:31;7.88;;;6.15;;
38425;SDS011;24210;51.460;6.148;2023-03-01T12:01:36;8.95;;;5.93;;
38425;SDS011;24210;51.460;6.148;2023-03-01T12:04:17;9.50;;;7.47;;
38425;SDS011;24210;51.460;6.148;2023-03-01T12:22:09;10.27;;;6.40;;
38425;SDS011;24210;51.460;6.148;2023-03-01T12:42:20;7.45;;;5.00;;
38425;SDS011;24210;51.460;6.148;2023-03-01T12:50:02;6.77;;;5.07;;
38425;SDS011;24210;51.460;6.148;2023-03-01T12:52:33;9.40;;;6.45;;
38425;SDS011;24210;51.460;6.148;2023-03-01T12:55:01;10.77;;;6.20;;
38425;SDS011;24210;51.460;6.148;2023-03-01T12:57:36;8.18;;;6.53;;
38425;SDS011;24210;51.460;6.148;2023-03-01T13:02:41;7.47;;;5.30;;
38425;SDS011;24210;51.460;6.148;2023-03-01T13:05:29;5.75;;;4.35;;
38425;SDS011;24210;51.460;6.148;2023-03-01T13:10:31;2.65;;;2.10;;
38425;SDS011;24210;51.460;6.148;2023-03-01T13:13:02;9.10;;;6.63;;
38425;SDS011;24210;51.460;6.148;2023-03-01T13:15:29;9.95;;;6.32;;
38425;SDS011;24210;51.460;6.148;2023-03-01T13:17:58;3.63;;;2.42;;
38425;SDS011;24210;51.460;6.148;2023-03-01T13:20:29;6.07;;;5.00;;
38425;SDS011;24210;51.460;6.148;2023-03-01T13:23:03;6.07;;;4.70;;
38425;SDS011;24210;51.460;6.148;2023-03-01T13:25:28;7.93;;;5.32;;
38425;SDS011;24210;51.460;6.148;2023-03-01T13:28:09;5.90;;;5.20;;
38425;SDS011;24210;51.460;6.148;2023-03-01T13:30:39;8.45;;;5.20;;
38425;SDS011;24210;51.460;6.148;2023-03-01T13:35:51;8.63;;;5.73;;
38425;SDS011;24210;51.460;6.148;2023-03-01T13:41:01;7.78;;;4.80;;
38425;SDS011;24210;51.460;6.148;2023-03-01T13:43:28;7.57;;;5.30;;
38425;SDS011;24210;51.460;6.148;2023-03-01T13:48:22;5.78;;;4.88;;
38425;SDS011;24210;51.460;6.148;2023-03-01T13:50:50;6.45;;;4.90;;
38425;SDS011;24210;51.460;6.148;2023-03-01T13:53:17;7.05;;;5.18;;
38425;SDS011;24210;51.460;6.148;2023-03-01T13:55:47;10.25;;;5.70;;
38425;SDS011;24210;51.460;6.148;2023-03-01T13:58:26;4.68;;;3.50;;
38425;SDS011;24210;51.460;6.148;2023-03-01T14:00:59;7.60;;;6.63;;
38425;SDS011;24210;51.460;6.148;2023-03-01T14:03:25;6.60;;;3.28;;
38425;SDS011;24210;51.460;6.148;2023-03-01T14:06:04;6.27;;;5.37;;
38425;SDS011;24210;51.460;6.148;2023-03-01T14:08:33;6.40;;;5.78;;
38425;SDS011;24210;51.460;6.148;2023-03-01T14:11:06;8.60;;;6.30;;
38425;SDS011;24210;51.460;6.148;2023-03-01T14:21:21;7.20;;;5.40;;
38425;SDS011;24210;51.460;6.148;2023-03-01T14:23:47;9.07;;;6.63;;
38425;SDS011;24210;51.460;6.148;2023-03-01T14:26:12;8.57;;;6.03;;
38425;SDS011;24210;51.460;6.148;2023-03-01T14:28:38;7.53;;;6.03;;
38425;SDS011;24210;51.460;6.148;2023-03-01T14:31:25;7.45;;;6.72;;
38425;SDS011;24210;51.460;6.148;2023-03-01T14:33:54;7.18;;;6.13;;
38425;SDS011;24210;51.460;6.148;2023-03-01T14:36:25;7.25;;;4.68;;
38425;SDS011;24210;51.460;6.148;2023-03-01T14:38:50;5.53;;;4.72;;
38425;SDS011;24210;51.460;6.148;2023-03-01T14:41:16;6.90;;;5.37;;
38425;SDS011;24210;51.460;6.148;2023-03-01T14:46:18;8.52;;;5.72;;
38425;SDS011;24210;51.460;6.148;2023-03-01T14:48:44;9.35;;;5.70;;
38425;SDS011;24210;51.460;6.148;2023-03-01T14:51:09;9.40;;;7.00;;
38425;SDS011;24210;51.460;6.148;2023-03-01T14:56:01;7.80;;;7.00;;
38425;SDS011;24210;51.460;6.148;2023-03-01T14:58:27;7.27;;;5.30;;
38425;SDS011;24210;51.460;6.148;2023-03-01T15:00:57;7.73;;;5.57;;
38425;SDS011;24210;51.460;6.148;2023-03-01T15:03:35;8.10;;;6.60;;
38425;SDS011;24210;51.460;6.148;2023-03-01T15:06:05;5.65;;;4.78;;
38425;SDS011;24210;51.460;6.148;2023-03-01T15:08:31;11.52;;;7.53;;
38425;SDS011;24210;51.460;6.148;2023-03-01T15:13:33;8.68;;;7.03;;
38425;SDS011;24210;51.460;6.148;2023-03-01T15:16:02;10.02;;;7.40;;
38425;SDS011;24210;51.460;6.148;2023-03-01T15:18:28;5.47;;;4.05;;
38425;SDS011;24210;51.460;6.148;2023-03-01T15:20:54;9.57;;;6.53;;
38425;SDS011;24210;51.460;6.148;2023-03-01T15:23:24;8.95;;;6.57;;
38425;SDS011;24210;51.460;6.148;2023-03-01T15:25:51;7.78;;;6.35;;
38425;SDS011;24210;51.460;6.148;2023-03-01T15:28:21;9.40;;;7.38;;
38425;SDS011;24210;51.460;6.148;2023-03-01T15:30:51;9.35;;;8.27;;
38425;SDS011;24210;51.460;6.148;2023-03-01T15:35:44;6.63;;;5.30;;
38425;SDS011;24210;51.460;6.148;2023-03-01T15:40:53;9.38;;;8.35;;
38425;SDS011;24210;51.460;6.148;2023-03-01T15:46:03;8.68;;;6.18;;
38425;SDS011;24210;51.460;6.148;2023-03-01T15:48:29;11.45;;;6.82;;
38425;SDS011;24210;51.460;6.148;2023-03-01T15:50:55;9.93;;;6.10;;
38425;SDS011;24210;51.460;6.148;2023-03-01T15:53:21;8.50;;;6.97;;
38425;SDS011;24210;51.460;6.148;2023-03-01T15:55:47;12.03;;;7.23;;
38425;SDS011;24210;51.460;6.148;2023-03-01T15:58:23;10.68;;;6.72;;
38425;SDS011;24210;51.460;6.148;2023-03-01T16:00:49;10.32;;;8.13;;
38425;SDS011;24210;51.460;6.148;2023-03-01T16:03:20;9.98;;;8.18;;
38425;SDS011;24210;51.460;6.148;2023-03-01T16:05:47;9.50;;;8.07;;
38425;SDS011;24210;51.460;6.148;2023-03-01T16:08:12;12.23;;;8.40;;
38425;SDS011;24210;51.460;6.148;2023-03-01T16:10:37;11.20;;;7.83;;
38425;SDS011;24210;51.460;6.148;2023-03-01T16:13:03;10.67;;;8.73;;
38425;SDS011;24210;51.460;6.148;2023-03-01T16:15:29;10.27;;;7.97;;
38425;SDS011;24210;51.460;6.148;2023-03-01T16:17:55;9.75;;;6.70;;
38425;SDS011;24210;51.460;6.148;2023-03-01T16:20:21;12.93;;;7.83;;
38425;SDS011;24210;51.460;6.148;2023-03-01T16:22:46;11.63;;;7.32;;
38425;SDS011;24210;51.460;6.148;2023-03-01T16:25:13;12.07;;;8.87;;
38425;SDS011;24210;51.460;6.148;2023-03-01T16:27:41;8.88;;;7.35;;
38425;SDS011;24210;51.460;6.148;2023-03-01T16:30:07;9.90;;;7.13;;
38425;SDS011;24210;51.460;6.148;2023-03-01T16:32:32;8.53;;;6.73;;
38425;SDS011;24210;51.460;6.148;2023-03-01T16:34:57;6.97;;;5.43;;
38425;SDS011;24210;51.460;6.148;2023-03-01T16:37:23;11.63;;;8.53;;
38425;SDS011;24210;51.460;6.148;2023-03-01T16:39:48;22.07;;;8.53;;
38425;SDS011;24210;51.460;6.148;2023-03-01T16:42:15;13.02;;;7.80;;